Time;durP1;ratioP1;P1;durP2;ratioP2;P2;SDS_P1;SDS_P2;PMS_P1;PMS_P2;Temp;Humidity;BMP_temperature;BMP_pressure;BME280_temperature;BME280_humidity;BME280_pressure;Samples;Min_cycle;Max_cycle;Signal;HPM_P1;HPM_P2
2023/07/27 16:48:03;;;;;;;;;;;;;21.40;97781.00;;;;7204527;19;122339;-65
2023/07/27 16:50:30;;;;;;;;;;;;;21.60;97781.00;;;;7376376;19;11486;-67
2023/07/27 16:52:57;;;;;;;;;;;;;22.60;97781.00;;;;7433233;19;1179;-68
2023/07/27 16:55:25;;;;;;;;;;;;;22.60;97781.00;;;;7436659;19;1749;-69
2023/07/27 16:57:52;;;;;;;;;;;;;21.90;97782.00;;;;7431664;19;1308;-67
2023/07/27 17:00:19;;;;;;;;;;;;;22.30;97786.00;;;;7434146;19;868;-67
2023/07/27 17:02:47;;;;;;;;;;;;;22.10;97785.00;;;;7433946;19;1160;-66
2023/07/27 17:05:13;;;;;;;;;;;;;21.90;97788.00;;;;7437874;19;1727;-66
2023/07/27 17:07:40;;;;;;;;;;;;;22.00;97792.00;;;;7431208;19;1846;-66
2023/07/27 17:10:07;;;;;;;;;;;;;22.00;97785.00;;;;7435597;19;1120;-68
2023/07/27 17:12:34;;;;;;;;;;;;;22.30;97798.00;;;;7409722;19;12691;-67
2023/07/27 17:15:01;;;;;;;;;;;;;22.10;97788.00;;;;7431984;19;1031;-65
2023/07/27 17:17:27;;;;;;;;;;;;;22.10;97794.00;;;;7427898;19;1251;-67
2023/07/27 17:19:54;;;;;;;;;;;;;22.00;97804.00;;;;7432369;19;941;-69
2023/07/27 17:22:21;;;;;;;;;;;;;22.00;97790.00;;;;7434704;19;1656;-68
2023/07/27 17:24:48;;;;;;;;;;;;;22.10;97788.00;;;;7431308;19;1144;-70
2023/07/27 17:27:15;;;;;;;;;;;;;22.00;97797.00;;;;7429130;19;1857;-69
2023/07/27 17:29:44;;;;;;;;;;;;;21.90;97800.00;;;;7432449;19;1289;-70
2023/07/27 17:32:11;;;;;;;;;;;;;21.90;97798.00;;;;7434303;19;868;-72
2023/07/27 17:34:38;;;;;;;;;;;;;22.10;97806.00;;;;7432936;19;1159;-70
2023/07/27 17:37:05;;;;;;;;;;;;;22.60;97806.00;;;;7429839;19;1317;-68
2023/07/27 17:39:32;;;;;;;;;;;;;22.70;97815.00;;;;7431941;19;856;-69
2023/07/27 17:41:58;;;;;;;;;;;;;22.80;97805.00;;;;7433857;19;829;-69
2023/07/27 17:44:25;;;;;;;;;;;;;22.70;97819.00;;;;7429588;19;928;-67
2023/07/27 17:46:52;;;;;;;;;;;;;22.30;97809.00;;;;7430819;19;1858;-68
2023/07/27 17:49:18;;;;;;;;;;;;;22.40;97808.00;;;;7436293;19;1815;-68
2023/07/27 17:51:45;;;;;;;;;;;;;22.70;97827.00;;;;7430377;19;985;-67
2023/07/27 17:54:12;;;;;;;;;;;;;22.40;97818.00;;;;7431788;19;1273;-65
2023/07/27 17:56:40;;;;;;;;;;;;;22.30;97818.00;;;;7429992;19;1300;-67
2023/07/27 17:59:06;;;;;;;;;;;;;22.30;97816.00;;;;7405434;19;1075;-68
2023/07/27 18:01:33;;;;;;;;;;;;;22.00;97823.00;;;;7400366;19;1068;-68
2023/07/27 18:04:01;;;;;;;;;;;;;21.90;97824.00;;;;7400693;19;916;-64
2023/07/27 18:06:28;;;;;;;;;;;;;22.10;97822.00;;;;7402241;19;1861;-67
2023/07/27 18:08:55;;;;;;;;;;;;;22.10;97830.00;;;;7402891;19;877;-69
2023/07/27 18:11:22;;;;;;;;;;;;;22.00;97833.00;;;;7403540;19;1087;-69
2023/07/27 18:13:49;;;;;;;;;;;;;22.10;97819.00;;;;7402654;19;1145;-69
2023/07/27 18:16:16;;;;;;;;;;;;;22.30;97837.00;;;;7401699;19;1369;-69
2023/07/27 18:18:43;;;;;;;;;;;;;22.10;97840.00;;;;7402331;19;1013;-68
2023/07/27 18:21:11;;;;;;;;;;;;;22.10;97840.00;;;;7403160;19;1846;-68
2023/07/27 18:23:38;;;;;;;;;;;;;22.10;97848.00;;;;7401893;19;960;-68
2023/07/27 18:26:05;;;;;;;;;;;;;22.10;97844.00;;;;7400349;19;1417;-66
2023/07/27 18:28:32;;;;;;;;;;;;;22.10;97836.00;;;;7397157;19;1862;-67
2023/07/27 18:31:03;;;;;;;;;;;;;22.10;97845.00;;;;7399603;19;1199;-66
2023/07/27 18:33:30;;;;;;;;;;;;;22.10;97835.00;;;;7399332;19;1269;-64
2023/07/27 18:35:57;;;;;;;;;;;;;22.00;97844.00;;;;7398623;19;1330;-65
2023/07/27 18:38:25;;;;;;;;;;;;;22.00;97844.00;;;;7398691;19;1265;-66
2023/07/27 18:40:52;;;;;;;;;;;;;22.00;97839.00;;;;7399527;19;1206;-64
2023/07/27 18:43:19;;;;;;;;;;;;;22.40;97835.00;;;;7399280;19;1179;-67
2023/07/27 18:45:49;;;;;;;;;;;;;22.60;97833.00;;;;7398981;19;1298;-68
2023/07/27 18:48:16;;;;;;;;;;;;;22.20;97835.00;;;;7401973;19;1845;-71
2023/07/27 18:50:43;;;;;;;;;;;;;22.00;97825.00;;;;7399814;19;1189;-70
2023/07/27 18:53:10;;;;;;;;;;;;;22.10;97838.00;;;;7398316;19;1134;-72
2023/07/27 18:55:36;;;;;;;;;;;;;22.40;97829.00;;;;7399328;19;1281;-69
2023/07/27 18:58:03;;;;;;;;;;;;;22.30;97827.00;;;;7400655;19;1035;-70
2023/07/27 19:00:30;;;;;;;;;;;;;22.10;97823.00;;;;7398161;19;1398;-71
2023/07/27 19:02:57;;;;;;;;;;;;;22.10;97834.00;;;;7398260;19;1011;-71
2023/07/27 19:05:24;;;;;;;;;;;;;22.40;97830.00;;;;7401251;19;1324;-71
2023/07/27 19:07:50;;;;;;;;;;;;;22.20;97839.00;;;;7397914;19;1849;-72
2023/07/27 19:10:17;;;;;;;;;;;;;22.20;97838.00;;;;7398682;19;1226;-73
2023/07/27 19:12:44;;;;;;;;;;;;;22.00;97844.00;;;;7402075;19;1008;-74
2023/07/27 19:15:10;;;;;;;;;;;;;22.00;97842.00;;;;7400565;19;1150;-73
2023/07/27 19:17:37;;;;;;;;;;;;;22.50;97841.00;;;;7398343;19;1371;-71
2023/07/27 19:20:04;;;;;;;;;;;;;22.30;97848.00;;;;7399371;19;971;-71
2023/07/27 19:22:31;;;;;;;;;;;;;22.00;97844.00;;;;7398531;19;770;-70
2023/07/27 19:24:58;;;;;;;;;;;;;22.00;97851.00;;;;7397442;19;929;-70
2023/07/27 19:27:24;;;;;;;;;;;;;22.00;97850.00;;;;7397462;19;1843;-71
2023/07/27 19:29:51;;;;;;;;;;;;;22.00;97846.00;;;;7397420;19;889;-71
2023/07/27 19:32:18;;;;;;;;;;;;;22.00;97862.00;;;;7397578;19;904;-70
2023/07/27 19:34:45;;;;;;;;;;;;;22.00;97864.00;;;;7398661;19;845;-70
2023/07/27 19:37:11;;;;;;;;;;;;;22.00;97866.00;;;;7395483;19;1323;-70
2023/07/27 19:39:38;;;;;;;;;;;;;22.00;97871.00;;;;7398184;19;1119;-70
2023/07/27 19:42:08;;;;;;;;;;;;;22.00;97870.00;;;;7399656;19;1123;-71
2023/07/27 19:44:35;;;;;;;;;;;;;22.00;97876.00;;;;7397721;19;1135;-71
2023/07/27 19:47:06;;;;;;;;;;;;;22.00;97882.00;;;;7397857;19;1837;-72
2023/07/27 19:49:32;;;;;;;;;;;;;22.00;97870.00;;;;7399946;19;1192;-73
2023/07/27 19:51:59;;;;;;;;;;;;;22.00;97874.00;;;;7397522;19;1075;-69
2023/07/27 19:54:26;;;;;;;;;;;;;22.00;97871.00;;;;7399420;19;1016;-72
2023/07/27 19:56:53;;;;;;;;;;;;;22.00;97868.00;;;;7397724;19;1280;-70
2023/07/27 19:59:19;;;;;;;;;;;;;22.00;97869.00;;;;7397898;19;1178;-67
2023/07/27 20:01:46;;;;;;;;;;;;;22.00;97873.00;;;;7397593;19;1203;-70
2023/07/27 20:04:13;;;;;;;;;;;;;22.00;97874.00;;;;7396710;19;1182;-70
2023/07/27 20:06:40;;;;;;;;;;;;;22.00;97869.00;;;;7396081;19;1389;-70
2023/07/27 20:09:07;;;;;;;;;;;;;22.10;97874.00;;;;7396307;19;1328;-69
2023/07/27 20:11:34;;;;;;;;;;;;;22.10;97868.00;;;;7396704;19;1152;-70
2023/07/27 20:14:01;;;;;;;;;;;;;22.10;97873.00;;;;7395970;19;981;-71
2023/07/27 20:16:28;;;;;;;;;;;;;22.10;97870.00;;;;7396511;19;1357;-70
2023/07/27 20:18:54;;;;;;;;;;;;;22.10;97865.00;;;;7396410;19;1174;-72
2023/07/27 20:21:21;;;;;;;;;;;;;22.00;97863.00;;;;7395536;19;1064;-74
2023/07/27 20:23:48;;;;;;;;;;;;;22.00;97868.00;;;;7397949;19;1148;-73
2023/07/27 20:26:14;;;;;;;;;;;;;21.90;97862.00;;;;7395783;19;1293;-71
2023/07/27 20:28:41;;;;;;;;;;;;;21.90;97869.00;;;;7394190;19;1843;-71
2023/07/27 20:31:08;;;;;;;;;;;;;21.90;97867.00;;;;7396267;19;1199;-71
2023/07/27 20:33:35;;;;;;;;;;;;;21.90;97868.00;;;;7395599;19;1267;-72
2023/07/27 20:36:02;;;;;;;;;;;;;21.90;97870.00;;;;7395723;19;1286;-70
2023/07/27 20:38:28;;;;;;;;;;;;;21.90;97858.00;;;;7395662;19;1195;-72
2023/07/27 20:40:55;;;;;;;;;;;;;21.90;97861.00;;;;7396909;19;925;-74
